Estación de Chanco INIA

Ultimos registro cada 15 minutos 61
Estación Fecha / Hora Temperatura Humedad Lluvia Velocidad Dirección Radiación Presion
61 Chanco INIA 10-05-2026 15:00 23,2 41,8 0 0,3 278 431 999
60 Chanco INIA 10-05-2026 14:45 23,1 41,3 0 0,1 284 458 999
59 Chanco INIA 10-05-2026 14:30 23 43,2 0 0 0 484 999
58 Chanco INIA 10-05-2026 14:15 22,7 41,9 0 0 0 506 999
57 Chanco INIA 10-05-2026 14:00 22 41,5 0 0 0 524 999
56 Chanco INIA 10-05-2026 13:45 21,4 42,2 0 0 0 537 999
55 Chanco INIA 10-05-2026 13:30 20,6 42 0 0 0 548 999
54 Chanco INIA 10-05-2026 13:15 20,1 43,9 0 0 0 554 1000
53 Chanco INIA 10-05-2026 13:00 20 43,5 0 0,2 267 558 1000
52 Chanco INIA 10-05-2026 12:45 20,5 45,7 0 1,2 272 559 1000
51 Chanco INIA 10-05-2026 12:30 20,6 45,5 0 0,8 275 556 1000
50 Chanco INIA 10-05-2026 12:15 20,5 43,1 0 0,2 286 551 1000
49 Chanco INIA 10-05-2026 12:00 20,3 42,8 0 0 0 542 1000
48 Chanco INIA 10-05-2026 11:45 20,1 39,5 0 0 0 529 1000
47 Chanco INIA 10-05-2026 11:30 19,8 39 0 0 0 513 1001
46 Chanco INIA 10-05-2026 11:15 19,8 36,7 0 0 0 494 1000
45 Chanco INIA 10-05-2026 11:00 19,1 38,3 0 0 0 471 1001
44 Chanco INIA 10-05-2026 10:45 18,8 42 0 0,1 284 446 1000
43 Chanco INIA 10-05-2026 10:30 18,4 41,3 0 0 0 418 1000
42 Chanco INIA 10-05-2026 10:15 17,7 41,3 0 0 0 388 1000
41 Chanco INIA 10-05-2026 10:00 16,6 42,2 0 0 327 356 1000
40 Chanco INIA 10-05-2026 09:45 16,2 44,5 0 0,2 355 321 1000
39 Chanco INIA 10-05-2026 09:30 16 44,2 0 0 0 284 1000
38 Chanco INIA 10-05-2026 09:15 15,2 45,4 0 0 0 246 1000
37 Chanco INIA 10-05-2026 09:00 15 42,3 0 0 0 206 1000
36 Chanco INIA 10-05-2026 08:45 14,5 43 0 0 0 167 1000
35 Chanco INIA 10-05-2026 08:30 13,9 42,3 0 0 0 125 1000
34 Chanco INIA 10-05-2026 08:15 13,1 41,2 0 0 0 85 1000
33 Chanco INIA 10-05-2026 08:00 13,6 38,5 0 0 0 30 1000
32 Chanco INIA 10-05-2026 07:45 13,5 36,1 0 0 0 5 1000
31 Chanco INIA 10-05-2026 07:30 16,9 35,4 0 0,6 165 1 1000
30 Chanco INIA 10-05-2026 07:15 17,6 27,4 0 1,6 170 0 1000
29 Chanco INIA 10-05-2026 07:00 18,1 27,1 0 1,4 211 0 999
28 Chanco INIA 10-05-2026 06:45 18 25,9 0 0,2 208 0 999
27 Chanco INIA 10-05-2026 06:30 18,5 27,4 0 0,7 154 0 1000
26 Chanco INIA 10-05-2026 06:15 18,6 26 0 1,1 185 0 1000
25 Chanco INIA 10-05-2026 06:00 18,9 23,8 0 1,6 183 0 1000
24 Chanco INIA 10-05-2026 05:45 19,6 23,8 0 1,1 199 0 1000
23 Chanco INIA 10-05-2026 05:30 19,3 20,1 0 1,1 188 0 1000
22 Chanco INIA 10-05-2026 05:15 17,2 21 0 0,3 107 0 1000
21 Chanco INIA 10-05-2026 05:00 19 19,8 0 2 169 0 1000
20 Chanco INIA 10-05-2026 04:45 18,4 18,4 0 2,9 170 0 1000
19 Chanco INIA 10-05-2026 04:30 18,9 17,8 0 3,8 172 0 1000
18 Chanco INIA 10-05-2026 04:15 19,2 16,9 0 2,8 167 0 1000
17 Chanco INIA 10-05-2026 04:00 19,6 16,2 0 2,9 183 0 1000
16 Chanco INIA 10-05-2026 03:45 19,9 14,5 0 1,8 214 0 1000
15 Chanco INIA 10-05-2026 03:30 19,4 13,9 0 1 239 0 1000
14 Chanco INIA 10-05-2026 03:15 19,4 14,8 0 1,4 215 0 1000
13 Chanco INIA 10-05-2026 03:00 17,4 17,7 0 0,6 147 0 1000
12 Chanco INIA 10-05-2026 02:45 18,8 18 0 0,6 154 0 1000
11 Chanco INIA 10-05-2026 02:30 18,7 17,4 0 2,4 204 0 1001
10 Chanco INIA 10-05-2026 02:15 18,4 18,1 0 2,2 220 0 1001
9 Chanco INIA 10-05-2026 02:00 15,7 19,4 0 1,8 191 0 1001
8 Chanco INIA 10-05-2026 01:45 11,7 44,3 0 0 0 0 1001
7 Chanco INIA 10-05-2026 01:30 12,9 42,7 0 0 0 0 1001
6 Chanco INIA 10-05-2026 01:15 14,1 35,9 0 0,1 51 0 1001
5 Chanco INIA 10-05-2026 01:00 14 36,7 0 0 0 0 1001
4 Chanco INIA 10-05-2026 00:45 13,2 38,5 0 0,1 315 0 1001
3 Chanco INIA 10-05-2026 00:30 11,8 40,5 0 0 0 0 1001
2 Chanco INIA 10-05-2026 00:15 11,6 48,4 0 0,1 71 0 1002
1 Chanco INIA 10-05-2026 00:00 12,2 49,3 0 0,1 38 0 1002